Time;durP1;ratioP1;P1;durP2;ratioP2;P2;SDS_P1;SDS_P2;PMS_P1;PMS_P2;Temp;Humidity;BMP_temperature;BMP_pressure;BME280_temperature;BME280_humidity;BME280_pressure;Samples;Min_cycle;Max_cycle;Signal;HPM_P1;HPM_P2
2022/12/15 00:39:57;;;;;;;3.17;2.90;;;-0.90;95.20;-2.10;94603.00;;;;4994925;28;20186;-61
2022/12/15 00:42:25;;;;;;;3.93;3.53;;;-1.00;95.20;-2.10;94604.00;;;;4995024;28;20206;-61
2022/12/15 00:44:52;;;;;;;4.33;3.13;;;-0.90;95.10;-2.10;94607.00;;;;4994569;28;20201;-61
2022/12/15 00:47:18;;;;;;;6.23;3.03;;;-1.00;95.10;-2.10;94614.00;;;;4994329;28;20222;-61
2022/12/15 01:20:19;;;;;;;3.50;3.20;;;-0.90;95.70;-2.10;94635.00;;;;4994263;28;20183;-61
2022/12/15 01:22:49;;;;;;;3.97;3.57;;;-0.80;96.20;-2.10;94632.00;;;;4994107;28;20221;-61
2022/12/15 01:25:18;;;;;;;3.50;2.40;;;-0.90;95.80;-2.10;94637.00;;;;4993967;28;20205;-60
2022/12/15 01:27:47;;;;;;;5.27;3.07;;;-1.00;95.50;-2.20;94632.00;;;;4993971;28;20550;-61
2022/12/15 01:30:18;;;;;;;3.17;2.97;;;-1.00;95.80;-2.20;94627.00;;;;4993853;28;20190;-61
2022/12/15 01:32:45;;;;;;;2.53;2.40;;;-1.00;96.20;-2.30;94630.00;;;;4994404;28;20185;-61
2022/12/15 01:35:13;;;;;;;4.83;4.43;;;-1.00;96.10;-2.30;94639.00;;;;4994157;28;20202;-61
2022/12/15 01:37:40;;;;;;;4.13;3.73;;;-1.10;96.70;-2.30;94649.00;;;;4993757;28;20210;-61
2022/12/15 01:42:58;;;;;;;6.40;4.93;;;-1.20;96.70;-2.40;94636.00;;;;4993919;28;20226;-61
2022/12/15 01:45:50;;;;;;;4.93;2.53;;;-1.20;96.90;-2.30;94658.00;;;;4993682;28;20201;-61
2022/12/15 01:48:26;;;;;;;2.60;2.47;;;-1.10;97.00;-2.30;94651.00;;;;5014059;23;20244;-55
2022/12/15 01:51:09;;;;;;;3.23;2.93;;;-1.10;97.30;-2.20;94647.00;;;;5013525;28;20178;-55
2022/12/15 01:53:45;;;;;;;4.60;3.30;;;-1.10;97.60;-2.20;94645.00;;;;5013264;28;20181;-55
2022/12/15 01:56:12;;;;;;;6.53;5.30;;;-1.00;97.30;-2.20;94645.00;;;;5013420;28;20574;-56
2022/12/15 01:58:45;;;;;;;5.70;3.60;;;-1.00;96.90;-2.10;94640.00;;;;5013506;28;20216;-55
2022/12/15 02:01:12;;;;;;;2.90;2.40;;;-1.00;97.70;-2.00;94655.00;;;;5013108;28;20182;-55
2022/12/15 02:03:42;;;;;;;4.13;3.83;;;-0.90;96.60;-2.00;94659.00;;;;5013536;28;20574;-55
2022/12/15 02:06:11;;;;;;;4.93;3.90;;;-0.90;96.30;-2.00;94662.00;;;;5013055;28;20661;-55
2022/12/15 02:08:39;;;;;;;4.83;4.17;;;-0.80;96.00;-2.00;94665.00;;;;4995351;28;20229;-56
2022/12/15 02:11:46;;;;;;;2.80;2.60;;;-0.90;96.20;-1.90;94662.00;;;;5012852;28;20194;-55
2022/12/15 02:14:28;;;;;;;6.40;4.77;;;-0.80;96.20;-2.00;94665.00;;;;5012933;28;20281;-55
2022/12/15 02:17:13;;;;;;;4.73;2.97;;;-0.90;96.10;-2.00;94662.00;;;;5012925;28;20182;-55
2022/12/15 02:20:37;;;;;;;5.47;3.10;;;-0.80;96.20;-2.00;94673.00;;;;5013177;28;20174;-58
2022/12/15 02:24:05;;;;;;;4.97;4.40;;;-0.90;96.00;-2.00;94678.00;;;;5013149;28;20563;-55
2022/12/15 02:27:11;;;;;;;3.23;2.97;;;-0.90;96.10;-1.90;94680.00;;;;4999608;28;20217;-55
2022/12/15 02:30:18;;;;;;;3.47;3.20;;;-0.80;96.00;-2.00;94674.00;;;;5014072;28;20275;-57
2022/12/15 02:32:58;;;;;;;5.30;3.87;;;-0.80;95.80;-1.90;94676.00;;;;4998834;28;20231;-55
2022/12/15 02:35:33;;;;;;;4.03;3.00;;;-0.80;95.60;-1.90;94676.00;;;;5016525;28;20186;-55
2022/12/15 02:38:01;;;;;;;4.50;4.07;;;-0.80;95.30;-1.90;94672.00;;;;5016407;28;20230;-55
2022/12/15 02:40:28;;;;;;;4.37;3.70;;;-0.80;95.10;-1.90;94677.00;;;;5017047;28;20612;-55
2022/12/15 02:43:00;;;;;;;3.10;2.30;;;-0.80;95.30;-1.90;94676.00;;;;5017069;28;20225;-56
2022/12/15 02:45:36;;;;;;;2.23;2.13;;;-0.80;95.40;-1.90;94677.00;;;;5016285;28;20236;-56
2022/12/15 02:48:21;;;;;;;5.40;3.63;;;-0.80;95.40;-1.90;94682.00;;;;5016475;28;20311;-55
2022/12/15 02:51:11;;;;;;;3.03;2.73;;;-0.80;95.60;-1.90;94676.00;;;;5016695;28;20181;-55
2022/12/15 02:54:04;;;;;;;3.20;2.60;;;-0.80;95.80;-1.80;94669.00;;;;4998470;28;20199;-55
2022/12/15 02:56:42;;;;;;;9.30;3.47;;;-0.70;95.90;-1.90;94676.00;;;;5016293;28;20174;-55
2022/12/15 02:59:19;;;;;;;2.73;2.53;;;-0.70;95.70;-1.90;94671.00;;;;4998310;28;20217;-55
2022/12/15 03:01:57;;;;;;;4.63;2.77;;;-0.70;95.70;-1.80;94662.00;;;;5016186;28;20246;-56
2022/12/15 03:04:26;;;;;;;1.77;1.67;;;-0.70;95.50;-1.90;94677.00;;;;5015870;28;20205;-56
2022/12/15 03:06:58;;;;;;;4.40;3.97;;;-0.70;95.30;-2.00;94680.00;;;;5015815;28;20189;-55
2022/12/15 03:09:25;;;;;;;4.77;3.20;;;-0.80;95.50;-1.80;94689.00;;;;5015969;28;20221;-55
2022/12/15 03:11:53;;;;;;;2.87;2.53;;;-0.70;96.00;-1.90;94685.00;;;;5015703;28;20195;-55
2022/12/15 03:14:20;;;;;;;3.10;2.80;;;-0.80;95.30;-2.00;94711.00;;;;5015702;28;20663;-55
2022/12/15 03:16:48;;;;;;;2.93;2.73;;;-0.80;95.80;-1.90;94704.00;;;;5015707;28;20201;-56
2022/12/15 03:19:15;;;;;;;4.63;4.30;;;-0.70;96.10;-2.00;94705.00;;;;5015639;28;20302;-56
2022/12/15 03:21:43;;;;;;;4.40;2.60;;;-0.80;95.60;-2.10;94715.00;;;;5015596;28;20189;-56
2022/12/15 03:24:10;;;;;;;3.43;3.20;;;-0.90;96.00;-2.10;94696.00;;;;5015554;28;20213;-56
2022/12/15 03:26:37;;;;;;;3.30;2.63;;;-1.00;96.20;-2.20;94695.00;;;;5015802;28;20540;-56
2022/12/15 03:29:04;;;;;;;3.93;3.63;;;-1.00;96.60;-2.20;94706.00;;;;5015433;28;20209;-56
2022/12/15 03:31:31;;;;;;;3.77;2.73;;;-1.10;96.90;-2.10;94694.00;;;;5015375;28;20198;-56
2022/12/15 03:34:00;;;;;;;6.90;3.70;;;-1.00;97.40;-2.20;94691.00;;;;5015693;28;20193;-56
2022/12/15 03:36:28;;;;;;;3.40;3.10;;;-1.00;97.60;-2.10;94706.00;;;;5015586;28;20676;-56
2022/12/15 03:38:55;;;;;;;2.87;2.67;;;-1.00;98.20;-2.10;94706.00;;;;5015202;28;20209;-56
2022/12/15 03:41:22;;;;;;;3.63;3.33;;;-0.90;98.40;-2.10;94710.00;;;;5014524;28;20190;-56
2022/12/15 03:43:49;;;;;;;3.17;2.93;;;-0.90;98.00;-2.30;94724.00;;;;5015414;28;20229;-56
2022/12/15 03:46:16;;;;;;;4.57;3.23;;;-1.10;97.50;-2.30;94722.00;;;;5015239;28;20229;-57
2022/12/15 03:48:43;;;;;;;3.90;3.60;;;-1.10;98.00;-2.20;94712.00;;;;5014920;28;20275;-56
2022/12/15 03:51:11;;;;;;;2.63;2.53;;;-1.10;98.30;-2.20;94711.00;;;;5015374;28;20593;-56
2022/12/15 03:53:39;;;;;;;3.50;3.20;;;-1.00;98.30;-2.20;94711.00;;;;5015011;28;20194;-56
2022/12/15 03:56:07;;;;;;;2.70;2.50;;;-1.00;98.20;-2.30;94720.00;;;;5015003;28;20718;-56
2022/12/15 03:58:34;;;;;;;4.13;3.70;;;-1.10;98.20;-2.10;94718.00;;;;5015037;28;20217;-56
2022/12/15 04:01:11;;;;;;;3.33;3.03;;;-1.00;98.40;-2.10;94713.00;;;;5014892;28;20201;-56
2022/12/15 04:03:39;;;;;;;3.80;2.50;;;-0.90;98.50;-2.10;94729.00;;;;5014723;28;20288;-57
2022/12/15 04:06:06;;;;;;;3.60;2.73;;;-1.00;98.40;-2.10;94717.00;;;;4997127;28;20727;-56
2022/12/15 04:08:35;;;;;;;3.60;3.33;;;-1.00;98.80;-2.10;94714.00;;;;5014637;28;20221;-56
2022/12/15 04:11:02;;;;;;;3.33;3.10;;;-0.90;98.80;-2.00;94724.00;;;;5014904;28;20186;-56
2022/12/15 04:13:29;;;;;;;2.93;2.73;;;-0.90;98.70;-2.00;94729.00;;;;4997034;28;20201;-56
2022/12/15 04:15:56;;;;;;;8.07;4.23;;;-0.80;98.40;-2.00;94725.00;;;;5014630;28;20197;-56
2022/12/15 04:18:23;;;;;;;2.83;2.63;;;-0.90;97.90;-2.00;94719.00;;;;5014533;28;20718;-57
2022/12/15 04:20:49;;;;;;;4.97;2.70;;;-0.80;97.90;-1.90;94727.00;;;;5014485;28;20190;-56
2022/12/15 04:23:16;;;;;;;6.43;2.70;;;-0.80;97.80;-1.90;94726.00;;;;4996785;28;20636;-62
2022/12/15 05:32:08;;;;;;;2.70;2.50;;;-0.70;95.70;-1.80;94761.00;;;;5013352;28;20186;-55
2022/12/15 05:34:37;;;;;;;2.30;2.20;;;-0.70;95.70;-1.40;94774.00;;;;4995672;28;20197;-55
2022/12/15 05:37:06;;;;;;;4.97;4.47;;;-0.50;98.90;-1.00;94791.00;;;;4995735;28;20202;-55
2022/12/15 05:39:33;;;;;;;4.77;4.37;;;-0.20;99.90;-1.00;94781.00;;;;5013097;28;20216;-55
2022/12/15 05:42:00;;;;;;;3.63;3.30;;;0.00;99.90;-1.20;94774.00;;;;5013222;28;20200;-56
2022/12/15 05:44:29;;;;;;;19.23;3.83;;;0.00;98.50;-1.40;94764.00;;;;5013294;28;20575;-56
2022/12/15 05:46:56;;;;;;;3.90;3.50;;;-0.20;97.40;-1.50;94755.00;;;;5013720;28;20202;-56
2022/12/15 05:49:24;;;;;;;3.87;3.27;;;-0.30;96.30;-1.50;94769.00;;;;5012938;28;20228;-56
2022/12/15 05:51:52;;;;;;;4.00;3.63;;;-0.30;97.00;-1.60;94770.00;;;;4995983;28;20675;-56
2022/12/15 05:54:20;;;;;;;4.10;3.77;;;-0.40;95.80;-1.60;94765.00;;;;5013047;28;20197;-56
2022/12/15 05:56:48;;;;;;;4.23;3.20;;;-0.50;95.90;-1.70;94767.00;;;;5013034;28;20193;-56
2022/12/15 05:59:15;;;;;;;5.53;4.10;;;-0.50;95.60;-1.80;94752.00;;;;5013008;28;20213;-56
2022/12/15 06:01:43;;;;;;;6.43;4.87;;;-0.60;95.50;-1.90;94753.00;;;;5012986;28;20189;-56
2022/12/15 06:04:11;;;;;;;5.57;3.73;;;-0.70;94.80;-1.90;94748.00;;;;5013468;28;20217;-56
2022/12/15 06:06:40;;;;;;;4.57;4.17;;;-0.70;95.50;-1.90;94796.00;;;;5016760;28;20197;-56
2022/12/15 06:09:08;;;;;;;4.80;4.37;;;-0.70;95.80;-1.90;94785.00;;;;4999282;28;20579;-56
2022/12/15 06:11:36;;;;;;;27.83;4.43;;;-0.80;95.60;-2.00;94782.00;;;;5016781;28;20192;-56
2022/12/15 06:14:03;;;;;;;3.63;3.07;;;-0.80;95.80;-2.00;94782.00;;;;5016786;28;20201;-56
2022/12/15 06:16:30;;;;;;;4.83;3.83;;;-0.80;96.00;-2.00;94788.00;;;;5016642;28;20193;-56
2022/12/15 06:19:00;;;;;;;9.67;4.80;;;-0.80;96.20;-2.00;94776.00;;;;5016833;28;20212;-56
2022/12/15 06:21:31;;;;;;;3.30;3.00;;;-0.90;96.50;-2.00;94778.00;;;;5016607;28;20204;-55
2022/12/15 06:23:59;;;;;;;6.33;5.70;;;-0.80;96.40;-2.00;94783.00;;;;5016445;28;20208;-62
2022/12/15 06:26:30;;;;;;;4.87;4.43;;;-0.80;96.40;-2.00;94776.00;;;;5017482;28;20204;-56
2022/12/15 06:29:01;;;;;;;10.70;4.30;;;-0.80;96.50;-2.00;94784.00;;;;5016763;28;20520;-56
2022/12/15 06:31:29;;;;;;;3.53;3.23;;;-0.80;96.20;-2.00;94789.00;;;;4998777;28;20189;-56
2022/12/15 06:33:57;;;;;;;4.53;4.00;;;-0.80;96.40;-2.00;94786.00;;;;4999438;28;20244;-56
2022/12/15 06:36:25;;;;;;;3.40;2.97;;;-0.80;96.30;-1.90;94773.00;;;;5016518;28;20197;-56
2022/12/15 06:38:52;;;;;;;6.23;4.70;;;-0.80;96.30;-1.90;94786.00;;;;5016315;28;20220;-57
2022/12/15 06:41:21;;;;;;;7.17;5.00;;;-0.80;96.20;-1.90;94789.00;;;;5016239;28;20201;-57
2022/12/15 06:43:50;;;;;;;5.57;2.97;;;-0.70;96.30;-1.80;94791.00;;;;4998725;28;20582;-56
2022/12/15 06:46:17;;;;;;;9.07;4.37;;;-0.70;96.00;-1.90;94792.00;;;;5016550;28;20193;-57
2022/12/15 06:48:46;;;;;;;4.17;3.87;;;-0.70;95.90;-1.80;94785.00;;;;5015901;28;20221;-57
2022/12/15 06:51:15;;;;;;;4.53;3.80;;;-0.70;95.80;-1.90;94778.00;;;;5016287;28;20256;-56
2022/12/15 06:53:47;;;;;;;5.47;4.20;;;-0.70;95.60;-1.90;94789.00;;;;5016044;28;20201;-56
2022/12/15 06:56:19;;;;;;;5.00;3.67;;;-0.80;95.70;-1.90;94777.00;;;;5016261;28;20188;-57
2022/12/15 06:58:49;;;;;;;10.00;3.73;;;-0.80;96.00;-1.90;94799.00;;;;5015890;28;20213;-55
2022/12/15 07:01:17;;;;;;;6.10;4.40;;;-0.80;95.80;-1.90;94796.00;;;;4998264;28;20675;-58
2022/12/15 07:03:45;;;;;;;5.67;5.17;;;-0.80;95.80;-1.90;94794.00;;;;5016550;28;20543;-55
2022/12/15 07:06:15;;;;;;;3.13;2.77;;;-0.80;95.70;-1.90;94782.00;;;;5015629;28;20194;-55
2022/12/15 07:08:43;;;;;;;7.37;5.50;;;-0.80;95.90;-1.90;94783.00;;;;5016066;28;20213;-55
2022/12/15 07:11:12;;;;;;;4.20;3.87;;;-0.70;96.00;-1.90;94794.00;;;;5015672;28;20189;-55
2022/12/15 07:13:43;;;;;;;8.23;4.67;;;-0.70;95.90;-1.90;94775.00;;;;5010581;28;20223;-56
2022/12/15 07:16:14;;;;;;;4.97;4.57;;;-0.70;95.80;-1.90;94798.00;;;;5005619;28;20202;-57
2022/12/15 07:18:42;;;;;;;4.63;3.47;;;-0.80;96.10;-1.90;94801.00;;;;5012129;28;20220;-57
2022/12/15 07:21:10;;;;;;;2.83;2.63;;;-0.70;95.90;-1.80;94791.00;;;;4982181;28;20296;-57
2022/12/15 07:23:37;;;;;;;4.67;4.27;;;-0.70;96.00;-1.80;94803.00;;;;4993696;28;20665;-59
2022/12/15 07:26:06;;;;;;;5.43;4.73;;;-0.60;95.70;-1.80;94797.00;;;;5010149;28;20316;-58
2022/12/15 07:28:33;;;;;;;5.80;5.30;;;-0.50;96.40;-1.80;94783.00;;;;5013143;28;20244;-58
2022/12/15 07:31:05;;;;;;;4.83;4.00;;;-0.60;95.50;-1.70;94789.00;;;;4994115;28;20189;-58
2022/12/15 07:33:35;;;;;;;4.73;3.10;;;-0.60;95.70;-1.70;94803.00;;;;5007948;28;20190;-58
2022/12/15 07:36:03;;;;;;;11.63;6.50;;;-0.50;95.70;-1.60;94794.00;;;;5012500;28;20211;-58
2022/12/15 07:38:31;;;;;;;5.60;3.60;;;-0.50;95.40;-1.60;94802.00;;;;4992087;28;20229;-58
2022/12/15 07:41:01;;;;;;;4.40;4.03;;;-0.50;95.20;-1.60;94812.00;;;;5008750;28;20190;-58
2022/12/15 07:43:31;;;;;;;5.23;4.10;;;-0.50;95.20;-1.60;94817.00;;;;5012957;28;20188;-58
2022/12/15 07:45:58;;;;;;;3.60;3.30;;;-0.50;95.20;-1.70;94814.00;;;;5012952;28;20251;-58
2022/12/15 07:48:26;;;;;;;4.40;3.97;;;-0.50;95.10;-1.50;94812.00;;;;5039353;23;20236;-58
2022/12/15 07:50:57;;;;;;;5.27;4.77;;;-0.50;95.20;-1.60;94827.00;;;;5012919;28;20273;-58
2022/12/15 07:53:26;;;;;;;4.83;4.37;;;-0.40;94.40;-1.60;94820.00;;;;5012854;28;20636;-58
2022/12/15 07:55:55;;;;;;;3.93;3.63;;;-0.50;94.50;-1.60;94795.00;;;;5012758;28;20209;-58
2022/12/15 07:58:22;;;;;;;6.03;5.27;;;-0.50;94.60;-1.60;94836.00;;;;5008766;28;20214;-58
2022/12/15 08:00:49;;;;;;;4.93;4.60;;;-0.50;94.50;-1.70;94826.00;;;;5001217;28;20205;-58
2022/12/15 08:03:17;;;;;;;3.73;3.13;;;-0.60;94.40;-2.10;94835.00;;;;4993122;28;20664;-58
2022/12/15 08:05:44;;;;;;;6.47;5.27;;;-0.90;94.70;-2.20;94842.00;;;;4975910;28;20221;-58
2022/12/15 08:08:13;;;;;;;4.00;3.70;;;-1.00;95.80;-2.10;94837.00;;;;4992940;28;20217;-58
2022/12/15 08:10:40;;;;;;;9.80;3.30;;;-0.90;96.40;-2.00;94848.00;;;;4992967;28;20209;-58
2022/12/15 08:13:07;;;;;;;8.20;5.70;;;-0.90;96.80;-1.90;94849.00;;;;4992884;28;20565;-58
2022/12/15 08:15:36;;;;;;;7.07;3.60;;;-0.90;97.20;-1.90;94851.00;;;;4992977;28;20198;-58
2022/12/15 08:18:04;;;;;;;6.40;4.87;;;-0.80;96.60;-1.80;94840.00;;;;4973852;28;20254;-59
2022/12/15 08:20:31;;;;;;;9.87;4.10;;;-0.70;96.90;-1.80;94853.00;;;;4992085;28;20583;-58
2022/12/15 08:22:59;;;;;;;6.23;4.10;;;-0.70;96.70;-1.70;94847.00;;;;4992430;28;20198;-57
2022/12/15 08:25:28;;;;;;;4.70;3.80;;;-0.60;96.60;-1.60;94846.00;;;;4992308;28;20241;-58
2022/12/15 08:27:55;;;;;;;6.10;5.50;;;-0.60;96.20;-1.70;94851.00;;;;4992441;28;20200;-57
2022/12/15 08:30:23;;;;;;;4.47;3.83;;;-0.60;95.90;-1.60;94847.00;;;;4991848;28;20221;-57
2022/12/15 08:32:51;;;;;;;3.73;3.37;;;-0.50;96.10;-1.50;94848.00;;;;4992536;28;20224;-57
2022/12/15 08:35:18;;;;;;;6.67;3.93;;;-0.50;96.20;-1.40;94856.00;;;;4992478;28;20198;-57
2022/12/15 08:37:45;;;;;;;5.30;4.80;;;-0.30;94.40;-1.40;94852.00;;;;4992423;28;20201;-57
2022/12/15 08:40:13;;;;;;;3.37;3.17;;;-0.30;94.80;-1.30;94859.00;;;;4992052;28;20209;-57
2022/12/15 08:42:42;;;;;;;6.67;3.93;;;-0.20;94.10;-1.20;94856.00;;;;4992366;28;20210;-57
2022/12/15 08:45:11;;;;;;;5.07;2.63;;;-0.20;94.40;-1.20;94873.00;;;;4991954;28;20230;-57
2022/12/15 08:47:38;;;;;;;4.63;3.87;;;-0.10;94.40;-1.20;94866.00;;;;4992309;28;20194;-57
2022/12/15 08:50:08;;;;;;;3.53;3.20;;;-0.10;95.00;-1.20;94847.00;;;;4992143;28;20223;-57
2022/12/15 08:52:40;;;;;;;4.17;3.77;;;-0.10;94.90;-1.10;94858.00;;;;4992205;28;20206;-57
2022/12/15 08:55:10;;;;;;;4.33;3.93;;;0.00;95.20;-1.00;94858.00;;;;4992145;28;20194;-57
2022/12/15 08:57:37;;;;;;;5.93;4.83;;;0.10;95.10;-0.90;94854.00;;;;4992185;28;20202;-57
2022/12/15 09:00:08;;;;;;;5.50;3.17;;;0.10;94.80;-0.80;94839.00;;;;4991930;28;20214;-57
2022/12/15 09:02:35;;;;;;;4.70;3.93;;;0.30;93.80;-0.70;94845.00;;;;4991989;28;20198;-57
2022/12/15 09:05:05;;;;;;;4.47;3.60;;;0.30;94.20;-0.60;94829.00;;;;5001240;28;20271;-57
2022/12/15 09:07:32;;;;;;;7.33;4.73;;;0.40;94.00;-0.60;94829.00;;;;5011915;28;20197;-57
2022/12/15 09:09:59;;;;;;;3.87;3.50;;;0.50;93.50;-0.50;94838.00;;;;5011908;28;20774;-57
2022/12/15 09:12:27;;;;;;;4.40;3.70;;;0.50;92.90;-0.70;94852.00;;;;5010178;28;20191;-59
2022/12/15 09:14:54;;;;;;;3.23;3.03;;;0.40;91.20;-0.60;94860.00;;;;4990610;28;20210;-58
2022/12/15 09:17:22;;;;;;;4.63;4.13;;;0.40;91.80;-0.60;94867.00;;;;5011604;28;20589;-58
2022/12/15 09:19:49;;;;;;;4.20;3.80;;;0.50;90.60;-0.90;94857.00;;;;5001958;28;20214;-58
2022/12/15 09:22:16;;;;;;;4.13;3.83;;;0.40;90.70;-0.80;94854.00;;;;4991991;28;20201;-57
2022/12/15 09:24:43;;;;;;;3.60;3.30;;;0.20;91.80;-0.60;94861.00;;;;4996785;28;20222;-58
2022/12/15 09:27:10;;;;;;;2.57;2.43;;;0.40;92.00;-0.40;94850.00;;;;5006831;28;20187;-57
2022/12/15 09:29:38;;;;;;;3.70;3.37;;;0.50;91.50;-0.30;94850.00;;;;5006843;28;20226;-57
2022/12/15 09:32:06;;;;;;;5.37;4.87;;;0.70;90.80;-0.20;94855.00;;;;5011689;28;20199;-58
2022/12/15 09:34:35;;;;;;;5.17;3.53;;;0.80;90.10;-0.20;94853.00;;;;5001716;28;20248;-58
2022/12/15 09:37:02;;;;;;;3.47;3.20;;;0.90;89.60;0.00;94853.00;;;;4996382;28;20283;-58
2022/12/15 09:39:29;;;;;;;4.80;3.30;;;1.00;89.40;0.00;94863.00;;;;4991013;28;20215;-58
2022/12/15 09:42:00;;;;;;;3.03;2.83;;;1.00;88.10;0.10;94863.00;;;;4991773;28;20206;-58
2022/12/15 09:44:31;;;;;;;4.73;3.80;;;1.10;88.60;0.20;94851.00;;;;4996719;28;20214;-56
2022/12/15 09:47:14;;;;;;;4.07;3.70;;;1.20;88.70;0.30;94853.00;;;;5002252;28;20553;-57
2022/12/15 09:49:55;;;;;;;4.03;3.73;;;1.20;88.90;0.30;94852.00;;;;5005975;28;20238;-58
2022/12/15 09:52:27;;;;;;;3.20;3.00;;;1.30;88.40;0.10;94861.00;;;;4993785;28;20198;-57
2022/12/15 09:54:55;;;;;;;4.43;4.03;;;1.20;88.00;0.10;94866.00;;;;5011329;28;20278;-57
2022/12/15 09:57:37;;;;;;;6.43;4.27;;;1.20;87.80;0.00;94882.00;;;;5011333;28;20542;-57
2022/12/15 10:00:20;;;;;;;4.27;3.87;;;1.10;87.90;-0.10;94875.00;;;;4985529;28;20220;-58
2022/12/15 10:03:26;;;;;;;8.57;4.53;;;1.00;88.10;-0.10;94881.00;;;;4991041;28;20188;-58
2022/12/15 10:06:06;;;;;;;3.30;3.10;;;1.00;87.80;-0.20;94882.00;;;;5010208;28;20318;-58
2022/12/15 10:08:38;;;;;;;3.93;3.53;;;0.90;88.30;-0.20;94867.00;;;;4990281;28;20222;-58
2022/12/15 10:11:16;;;;;;;3.40;3.20;;;0.90;88.80;-0.20;94870.00;;;;4990415;28;20215;-58
2022/12/15 10:13:54;;;;;;;4.07;3.63;;;0.90;88.10;-0.20;94880.00;;;;5006224;28;20229;-58
2022/12/15 10:16:32;;;;;;;5.37;4.27;;;0.90;88.30;-0.20;94872.00;;;;5011167;28;20668;-58
2022/12/15 10:19:12;;;;;;;4.20;3.80;;;0.90;89.00;-0.50;94833.00;;;;5009880;28;20225;-57
2022/12/15 10:21:41;;;;;;;3.60;3.30;;;0.70;89.40;-0.40;94854.00;;;;4990040;28;20202;-57
2022/12/15 10:24:21;;;;;;;4.17;3.70;;;0.70;91.30;-0.40;94841.00;;;;5003611;28;20198;-57
2022/12/15 10:26:55;;;;;;;3.90;3.60;;;0.70;91.20;-0.20;94824.00;;;;4993769;28;20298;-57
2022/12/15 10:29:36;;;;;;;5.27;2.90;;;0.80;91.10;-0.10;94836.00;;;;5010715;28;20234;-57
2022/12/15 10:32:15;;;;;;;13.33;4.90;;;0.90;90.80;0.00;94829.00;;;;5010441;28;20194;-57
2022/12/15 10:34:42;;;;;;;5.13;4.03;;;1.00;90.50;0.00;94829.00;;;;5010447;28;20191;-56
2022/12/15 10:37:17;;;;;;;3.80;3.50;;;1.10;90.40;0.10;94828.00;;;;5010692;28;20279;-57
2022/12/15 10:39:48;;;;;;;3.60;3.30;;;1.10;89.90;0.20;94819.00;;;;4991118;28;20218;-57
2022/12/15 10:42:20;;;;;;;3.87;3.57;;;1.20;89.30;0.30;94819.00;;;;4991193;28;20206;-58
2022/12/15 10:44:50;;;;;;;4.97;4.57;;;1.30;89.80;0.40;94825.00;;;;5010644;28;20223;-57
2022/12/15 10:47:21;;;;;;;3.53;3.23;;;1.40;89.00;0.40;94831.00;;;;5010552;28;20195;-58
2022/12/15 10:49:50;;;;;;;5.30;4.57;;;1.40;88.50;0.40;94822.00;;;;5010345;28;20223;-58
2022/12/15 10:52:32;;;;;;;5.93;3.40;;;1.50;88.50;0.50;94821.00;;;;5014139;28;20195;-57
2022/12/15 10:54:59;;;;;;;6.13;5.10;;;1.50;88.90;0.50;94811.00;;;;5014123;28;20638;-58
2022/12/15 10:57:29;;;;;;;11.03;6.27;;;1.50;88.50;0.60;94816.00;;;;4994837;28;20196;-58
2022/12/15 11:00:08;;;;;;;3.60;3.30;;;;;0.50;94801.00;;;;5014076;28;20210;-57
2022/12/15 11:02:36;;;;;;;7.33;4.30;;;1.60;87.00;0.20;94816.00;;;;4993359;28;20197;-58
2022/12/15 11:05:14;;;;;;;5.07;4.63;;;1.40;88.50;0.20;94807.00;;;;4993870;28;20519;-57
2022/12/15 11:07:47;;;;;;;4.53;4.10;;;1.30;89.00;0.40;94800.00;;;;4999080;28;20660;-59
2022/12/15 11:10:20;;;;;;;4.63;4.27;;;1.40;89.30;0.60;94818.00;;;;4991871;28;20201;-57
2022/12/15 11:13:11;;;;;;;4.03;3.73;;;1.50;88.70;0.60;94819.00;;;;4995972;28;20239;-59
2022/12/15 11:15:47;;;;;;;3.83;3.53;;;1.50;87.80;0.60;94800.00;;;;5013853;28;20282;-57
2022/12/15 11:18:41;;;;;;;4.10;3.43;;;1.60;87.70;0.60;94802.00;;;;5004792;28;20270;-57
2022/12/15 11:21:17;;;;;;;4.27;3.93;;;1.60;87.60;0.60;94799.00;;;;5011209;28;20552;-57
2022/12/15 11:24:20;;;;;;;6.27;5.43;;;1.60;86.80;0.30;94804.00;;;;5013453;28;20188;-57
2022/12/15 11:26:56;;;;;;;2.70;2.50;;;1.40;87.10;0.00;94806.00;;;;5013351;28;20215;-57
2022/12/15 11:29:39;;;;;;;5.57;3.37;;;1.20;88.80;-0.10;94795.00;;;;5013379;28;20222;-57
2022/12/15 11:32:06;;;;;;;6.77;5.07;;;1.00;90.00;0.10;94786.00;;;;4995799;28;20199;-57
2022/12/15 11:34:38;;;;;;;4.87;4.47;;;1.20;89.90;0.30;94788.00;;;;5013265;28;20209;-57
2022/12/15 11:37:27;;;;;;;3.10;2.63;;;1.30;89.40;0.50;94778.00;;;;4995574;28;20299;-57
2022/12/15 11:40:16;;;;;;;7.13;5.10;;;1.40;89.00;0.50;94764.00;;;;5012234;28;20242;-57
2022/12/15 11:43:00;;;;;;;4.93;4.43;;;1.50;88.70;0.60;94778.00;;;;4976134;28;20705;-56
2022/12/15 11:45:41;;;;;;;7.90;3.93;;;1.50;88.80;0.70;94755.00;;;;4993550;28;20345;-58
2022/12/15 11:48:16;;;;;;;5.10;4.50;;;1.70;88.80;0.80;94747.00;;;;5005698;28;20250;-58
2022/12/15 11:50:54;;;;;;;5.33;4.83;;;1.70;88.60;0.90;94742.00;;;;5004962;28;20675;-58
2022/12/15 11:54:02;;;;;;;4.20;3.70;;;1.80;88.50;0.90;94751.00;;;;4993798;28;20290;-57
2022/12/15 11:56:37;;;;;;;18.53;5.47;;;1.90;88.20;0.90;94719.00;;;;4993164;28;20243;-58
2022/12/15 11:59:29;;;;;;;4.70;4.30;;;1.90;87.40;0.90;94731.00;;;;4993255;28;20223;-58
2022/12/15 12:02:32;;;;;;;5.87;5.23;;;1.90;87.00;1.10;94723.00;;;;5011371;28;20184;-58
2022/12/15 12:05:26;;;;;;;17.53;6.30;;;2.00;87.00;1.00;94703.00;;;;5012818;28;20197;-56
2022/12/15 12:08:07;;;;;;;5.30;4.47;;;2.00;86.30;1.20;94713.00;;;;5012569;28;20195;-55
2022/12/15 12:10:46;;;;;;;9.03;6.67;;;2.10;96.60;1.20;94714.00;;;;5012961;28;20276;-56
2022/12/15 12:13:27;;;;;;;5.83;5.23;;;2.20;86.70;1.20;94710.00;;;;4993099;28;20204;-56
2022/12/15 12:16:09;;;;;;;5.43;4.93;;;2.20;86.30;1.30;94705.00;;;;4993366;28;20200;-56
2022/12/15 12:18:45;;;;;;;5.33;4.83;;;2.20;86.20;1.40;94708.00;;;;4993029;28;20719;-57
2022/12/15 12:21:16;;;;;;;5.70;3.37;;;2.30;85.90;1.50;94703.00;;;;4992890;28;20664;-57
2022/12/15 12:23:52;;;;;;;5.00;3.80;;;2.40;86.10;1.50;94704.00;;;;4993179;28;20546;-57
2022/12/15 12:26:27;;;;;;;14.13;4.93;;;2.50;85.30;1.60;94690.00;;;;5003374;28;20222;-57
2022/12/15 12:29:02;;;;;;;17.37;5.77;;;2.50;85.10;1.70;94692.00;;;;5012291;28;20212;-56
2022/12/15 12:31:43;;;;;;;9.33;4.40;;;2.60;84.70;1.50;94702.00;;;;5012586;28;20566;-56
2022/12/15 12:34:17;;;;;;;3.80;3.50;;;2.50;84.90;1.60;94691.00;;;;5000287;28;20648;-57
2022/12/15 12:36:48;;;;;;;4.83;4.27;;;2.50;85.50;1.60;94698.00;;;;4992687;28;20276;-57
2022/12/15 12:39:22;;;;;;;5.23;4.47;;;2.60;84.30;1.40;94701.00;;;;4992472;28;20221;-57
2022/12/15 12:42:00;;;;;;;4.93;4.43;;;2.40;85.50;1.10;94700.00;;;;4992889;28;20189;-58
2022/12/15 12:44:33;;;;;;;3.33;3.03;;;2.20;85.10;0.90;94694.00;;;;5008483;28;20544;-56
2022/12/15 12:47:13;;;;;;;7.10;4.70;;;2.10;85.80;1.10;94698.00;;;;5011991;28;20863;-56
2022/12/15 12:49:47;;;;;;;7.73;4.10;;;2.20;86.30;1.20;94698.00;;;;5010085;28;20223;-56
2022/12/15 12:52:24;;;;;;;6.00;5.40;;;2.20;86.30;1.30;94695.00;;;;5012076;28;20188;-57
2022/12/15 12:55:01;;;;;;;4.87;4.40;;;2.30;86.00;1.30;94696.00;;;;5011974;28;20184;-57
2022/12/15 12:57:40;;;;;;;5.63;4.37;;;2.30;85.80;1.00;94685.00;;;;5011975;28;20189;-57
2022/12/15 13:00:19;;;;;;;4.73;4.33;;;2.10;85.90;1.10;94674.00;;;;5011896;28;20691;-57
2022/12/15 13:03:17;;;;;;;4.47;4.10;;;2.10;86.40;1.10;94684.00;;;;5005940;28;20637;-57
2022/12/15 13:05:49;;;;;;;4.47;4.10;;;2.10;86.00;1.00;94681.00;;;;4992114;28;20217;-56
2022/12/15 13:08:52;;;;;;;7.30;5.97;;;2.20;85.80;1.00;94667.00;;;;5007253;28;20217;-56
2022/12/15 13:12:00;;;;;;;5.63;4.40;;;2.10;86.80;0.80;94672.00;;;;5012294;28;20593;-57
2022/12/15 13:14:43;;;;;;;7.20;5.10;;;1.90;86.50;0.90;94663.00;;;;5010444;28;20203;-57
2022/12/15 13:17:23;;;;;;;4.03;3.73;;;2.00;87.20;0.50;94661.00;;;;5011586;28;20217;-57
2022/12/15 13:20:24;;;;;;;7.10;5.80;;;1.60;87.70;0.50;94645.00;;;;5011585;28;20218;-57
2022/12/15 13:22:53;;;;;;;5.03;4.63;;;1.60;89.10;0.70;94637.00;;;;5011476;28;20551;-56
2022/12/15 13:25:40;;;;;;;7.20;6.60;;;1.70;89.10;0.80;94633.00;;;;5011345;28;20204;-57
2022/12/15 13:28:43;;;;;;;11.10;6.47;;;1.80;89.20;0.80;94635.00;;;;4992396;28;20224;-57
2022/12/15 13:31:46;;;;;;;5.20;4.63;;;1.80;89.00;0.90;94635.00;;;;5008179;28;20199;-57
2022/12/15 13:34:35;;;;;;;4.13;3.83;;;1.90;89.10;0.70;94627.00;;;;5011499;28;20677;-57
2022/12/15 13:37:07;;;;;;;8.90;5.40;;;1.80;88.40;0.70;94629.00;;;;5011299;28;20700;-57
2022/12/15 13:39:57;;;;;;;6.93;5.17;;;1.70;88.70;0.60;94625.00;;;;5011943;28;20271;-57
2022/12/15 13:42:34;;;;;;;4.97;3.90;;;1.70;88.10;0.60;94622.00;;;;5011378;28;20184;-57
2022/12/15 13:45:39;;;;;;;8.90;5.10;;;1.70;88.60;0.60;94594.00;;;;5011454;28;20188;-57
2022/12/15 13:50:50;;;;;;;4.70;4.40;;;1.60;89.30;0.50;94623.00;;;;5034431;28;20233;-62